Time;durP1;ratioP1;P1;durP2;ratioP2;P2;SDS_P1;SDS_P2;PMS_P1;PMS_P2;Temp;Humidity;BMP_temperature;BMP_pressure;BME280_temperature;BME280_humidity;BME280_pressure;Samples;Min_cycle;Max_cycle;Signal;HPM_P1;HPM_P2
2023/10/08 00:01:21;;;;;;;4.67;3.80;;;;;;;14.25;91.70;101177.00;5017433;28;20370;-82
2023/10/08 00:03:52;;;;;;;4.27;3.83;;;;;;;14.27;90.60;101176.13;5022963;28;20194;-80
2023/10/08 00:06:21;;;;;;;5.03;3.47;;;;;;;14.28;90.47;101180.44;5047241;28;20183;-77
2023/10/08 00:08:47;;;;;;;4.73;3.47;;;;;;;14.28;90.43;101180.44;5042775;28;20279;-84
2023/10/08 00:11:15;;;;;;;5.00;3.70;;;;;;;14.35;88.74;101176.03;5013850;28;20207;-79
2023/10/08 00:13:41;;;;;;;4.40;3.63;;;;;;;14.31;89.32;101177.78;5008306;28;20187;-79
2023/10/08 00:16:11;;;;;;;4.17;3.40;;;;;;;14.33;89.64;101183.00;5010381;28;21087;-81
2023/10/08 00:18:49;;;;;;;5.50;3.97;;;;;;;14.35;89.32;101177.78;5014445;28;20253;-84
2023/10/08 00:21:26;;;;;;;5.77;3.63;;;;;;;14.36;89.20;101172.56;5011769;28;20207;-83
2023/10/08 00:23:52;;;;;;;5.10;3.63;;;;;;;14.39;88.90;101172.50;5012271;28;20222;-81
2023/10/08 00:26:27;;;;;;;6.10;3.50;;;;;;;14.40;89.04;101174.22;5016913;28;20660;-82
2023/10/08 00:28:55;;;;;;;4.37;3.03;;;;;;;14.40;88.76;101170.78;5015184;28;20488;-81
2023/10/08 00:31:24;;;;;;;4.47;3.37;;;;;;;14.41;88.64;101167.28;5020618;28;20361;-80
2023/10/08 00:33:49;;;;;;;4.87;3.57;;;;;;;14.43;88.75;101173.34;5017217;28;20302;-82
2023/10/08 00:36:18;;;;;;;4.87;3.40;;;;;;;14.43;88.77;101170.75;5019226;28;20209;-82
2023/10/08 00:38:50;;;;;;;4.87;3.23;;;;;;;14.42;88.82;101169.88;5007591;28;20216;-81
2023/10/08 00:41:21;;;;;;;4.10;3.03;;;;;;;14.42;88.92;101174.22;5013166;28;20212;-81
2023/10/08 00:43:47;;;;;;;3.90;2.90;;;;;;;14.42;89.28;101166.41;5007955;28;20179;-80
2023/10/08 00:46:27;;;;;;;3.63;2.93;;;;;;;14.40;89.48;101169.03;5017801;28;20242;-79
2023/10/08 00:48:57;;;;;;;4.43;3.13;;;;;;;14.39;89.29;101166.44;5005457;28;20303;-78
2023/10/08 00:53:59;;;;;;;3.73;3.23;;;;;;;14.37;89.26;101166.44;5024662;28;20218;-83
2023/10/08 00:59:45;;;;;;;4.50;3.30;;;;;;;14.33;89.47;101154.34;5032511;28;20188;-81
2023/10/08 01:02:15;;;;;;;3.50;2.93;;;;;;;14.31;89.51;101148.31;5022217;28;20767;-81
2023/10/08 01:04:43;;;;;;;3.97;3.10;;;;;;;14.30;89.84;101150.03;5020817;28;20204;-83
2023/10/08 01:07:15;;;;;;;4.27;3.07;;;;;;;14.28;89.67;101148.31;5011066;28;20181;-83
2023/10/08 01:09:42;;;;;;;3.60;2.90;;;;;;;14.27;89.43;101138.78;5014374;28;20204;-81
2023/10/08 01:12:13;;;;;;;4.13;3.43;;;;;;;14.26;89.29;101137.94;5020920;28;20246;-83
2023/10/08 01:14:42;;;;;;;4.03;2.67;;;;;;;14.25;88.93;101136.22;5015849;28;20188;-80
2023/10/08 01:17:08;;;;;;;3.70;2.90;;;;;;;14.25;88.83;101131.00;5016602;28;20187;-78
2023/10/08 01:19:38;;;;;;;3.73;3.03;;;;;;;14.26;88.40;101127.53;5013838;28;20653;-79
2023/10/08 01:22:06;;;;;;;5.23;3.10;;;;;;;14.26;88.19;101139.66;5016896;28;20201;-82
2023/10/08 01:24:34;;;;;;;5.67;3.00;;;;;;;14.27;87.88;101136.19;5027426;28;20477;-83
2023/10/08 01:26:59;;;;;;;5.33;3.53;;;;;;;14.26;87.73;101137.94;5019061;28;20575;-83
2023/10/08 01:29:28;;;;;;;3.80;2.97;;;;;;;14.23;88.01;101140.56;5034312;28;20187;-79
2023/10/08 01:31:53;;;;;;;4.00;3.30;;;;;;;14.24;87.47;101131.88;5017619;28;20239;-82
2023/10/08 01:34:26;;;;;;;4.17;3.17;;;;;;;14.21;87.49;101141.47;5020406;28;20230;-82
2023/10/08 01:36:51;;;;;;;4.43;3.07;;;;;;;14.23;87.21;101142.28;5022376;28;20191;-81
2023/10/08 01:39:17;;;;;;;4.73;3.03;;;;;;;14.20;87.81;101144.97;5020789;28;21018;-81
2023/10/08 01:41:44;;;;;;;4.60;3.43;;;;;;;14.17;87.85;101149.31;5021706;28;20200;-75
2023/10/08 01:44:10;;;;;;;4.07;3.30;;;;;;;14.15;88.10;101153.66;5020008;28;20177;-80
2023/10/08 01:46:36;;;;;;;4.17;3.27;;;;;;;14.14;88.04;101153.69;5023574;28;20189;-80
2023/10/08 01:49:06;;;;;;;5.87;3.67;;;;;;;14.11;87.65;101148.50;5019498;28;20191;-83
2023/10/08 01:51:41;;;;;;;4.17;3.23;;;;;;;14.10;87.91;101154.59;5014997;28;20305;-81
2023/10/08 01:54:10;;;;;;;4.67;3.00;;;;;;;14.10;87.66;101159.81;5022622;28;20229;-83
2023/10/08 01:56:43;;;;;;;4.40;3.07;;;;;;;14.07;87.62;101152.00;5021212;28;20197;-82
2023/10/08 01:59:16;;;;;;;4.63;3.07;;;;;;;14.07;87.54;101145.06;5024371;28;20530;-80
2023/10/08 02:01:42;;;;;;;3.47;2.70;;;;;;;14.05;87.60;101149.44;5021346;28;20735;-81
2023/10/08 02:04:09;;;;;;;3.70;3.00;;;;;;;14.04;87.68;101145.09;5022341;28;20707;-80
2023/10/08 02:06:35;;;;;;;4.07;3.17;;;;;;;14.02;87.70;101137.28;5031963;28;20195;-80
2023/10/08 02:09:07;;;;;;;3.63;3.27;;;;;;;14.02;87.68;101139.91;5055396;28;20208;-79
2023/10/08 02:11:43;;;;;;;3.67;3.00;;;;;;;14.01;87.88;101138.16;5021573;28;20221;-81
2023/10/08 02:14:08;;;;;;;3.83;3.17;;;;;;;14.00;87.78;101136.44;5018625;28;20188;-79
2023/10/08 02:16:34;;;;;;;5.93;3.50;;;;;;;13.98;88.18;101135.63;5014983;28;20672;-82
2023/10/08 02:18:59;;;;;;;4.63;3.10;;;;;;;13.97;88.41;101133.91;5048964;28;20194;-82
2023/10/08 02:21:25;;;;;;;4.23;3.37;;;;;;;13.95;88.94;101138.25;5014646;28;20215;-81
2023/10/08 02:23:52;;;;;;;3.87;3.07;;;;;;;13.94;88.84;101136.53;5016032;28;20665;-81
2023/10/08 02:26:19;;;;;;;4.40;2.60;;;;;;;13.91;89.38;101139.16;5021737;28;20188;-80
2023/10/08 02:28:45;;;;;;;3.33;2.87;;;;;;;13.89;89.87;101137.44;5010417;28;20211;-80
2023/10/08 02:31:10;;;;;;;3.97;3.03;;;;;;;13.84;90.39;101133.13;5015177;28;20239;-82
2023/10/08 02:33:35;;;;;;;5.53;2.90;;;;;;;13.80;90.60;101133.19;5019109;28;20198;-83
2023/10/08 02:36:04;;;;;;;4.07;3.17;;;;;;;13.76;90.75;101141.88;5015657;28;20180;-82
2023/10/08 02:38:32;;;;;;;3.80;3.40;;;;;;;13.72;91.21;101136.69;5015158;28;20621;-81
2023/10/08 02:40:59;;;;;;;4.10;3.20;;;;;;;13.69;91.46;101144.53;5016503;28;20315;-79
2023/10/08 02:43:24;;;;;;;4.13;3.20;;;;;;;13.66;91.94;101133.28;5016608;28;20703;-81
2023/10/08 02:45:50;;;;;;;4.70;3.70;;;;;;;13.62;91.90;101135.06;5024231;28;20194;-83
2023/10/08 02:48:16;;;;;;;6.50;3.60;;;;;;;13.59;92.07;101129.88;5023369;28;20187;-78
2023/10/08 02:50:45;;;;;;;4.70;3.50;;;;;;;13.55;92.79;101134.25;5022826;28;20214;-80
2023/10/08 02:53:11;;;;;;;4.97;3.43;;;;;;;13.52;93.07;101131.66;5019916;28;20215;-81
2023/10/08 02:55:46;;;;;;;4.63;3.00;;;;;;;13.48;92.86;101131.69;5020023;28;20181;-82
2023/10/08 02:58:15;;;;;;;4.27;3.10;;;;;;;13.46;92.55;101133.44;5015304;28;20660;-82
2023/10/08 03:00:49;;;;;;;3.83;3.13;;;;;;;13.44;92.36;101130.00;5012605;28;20201;-82
2023/10/08 03:03:15;;;;;;;4.87;3.60;;;;;;;13.41;92.20;101134.34;5017871;28;20178;-81
2023/10/08 03:05:43;;;;;;;4.17;3.57;;;;;;;13.40;91.90;101140.41;5019776;28;20195;-81
2023/10/08 03:08:10;;;;;;;4.27;3.43;;;;;;;13.38;91.98;101144.75;5018249;28;20794;-83
2023/10/08 03:10:37;;;;;;;4.37;3.47;;;;;;;13.38;91.83;101146.47;5020356;28;20231;-79
2023/10/08 03:13:09;;;;;;;4.17;3.27;;;;;;;13.37;91.08;101143.03;5008137;28;20308;-79
2023/10/08 03:15:40;;;;;;;4.13;3.60;;;;;;;13.38;91.06;101141.28;5021825;28;20273;-82
2023/10/08 03:18:10;;;;;;;4.90;3.50;;;;;;;13.38;90.71;101130.88;5018233;28;20666;-82
2023/10/08 03:20:42;;;;;;;3.77;3.13;;;;;;;13.38;90.12;101123.94;5017502;28;20234;-81
2023/10/08 03:23:23;;;;;;;5.37;3.57;;;;;;;13.40;89.67;101129.16;5014129;28;20191;-82
2023/10/08 03:25:56;;;;;;;4.57;3.07;;;;;;;13.40;89.56;101119.59;5021052;28;20263;-80
2023/10/08 03:28:24;;;;;;;5.80;4.00;;;;;;;13.43;89.24;101116.13;5023079;28;20186;-83
2023/10/08 03:30:51;;;;;;;4.00;3.03;;;;;;;13.44;89.28;101114.38;5019095;28;20210;-81
2023/10/08 03:33:22;;;;;;;3.70;3.20;;;;;;;13.45;89.41;101116.13;5021723;28;20209;-83
2023/10/08 03:35:55;;;;;;;4.57;2.80;;;;;;;13.45;89.21;101121.31;5013925;28;20201;-83
2023/10/08 03:38:28;;;;;;;3.73;2.80;;;;;;;13.44;89.69;101128.28;5014488;28;20952;-81
2023/10/08 03:40:57;;;;;;;4.77;3.23;;;;;;;13.46;89.87;101123.03;5017813;28;20303;-82
2023/10/08 03:43:34;;;;;;;4.53;3.20;;;;;;;13.45;89.80;101123.91;5016458;28;20183;-79
2023/10/08 03:46:05;;;;;;;3.63;2.70;;;;;;;13.43;90.19;101123.94;5014296;28;20218;-82
2023/10/08 03:48:36;;;;;;;3.70;2.67;;;;;;;13.43;90.31;101130.84;5014013;28;21111;-82
2023/10/08 03:51:06;;;;;;;3.03;2.50;;;;;;;13.42;90.33;101127.41;5019899;28;20218;-82
2023/10/08 03:53:37;;;;;;;4.43;3.23;;;;;;;13.43;90.40;101123.06;5019164;28;20743;-83
2023/10/08 03:56:06;;;;;;;3.93;2.77;;;;;;;13.43;90.42;101123.06;5009462;28;20193;-81
2023/10/08 03:58:40;;;;;;;3.53;2.63;;;;;;;13.42;90.63;101127.41;5021500;28;20186;-82
2023/10/08 04:01:09;;;;;;;4.20;2.90;;;;;;;13.42;90.52;101132.63;5019754;28;20276;-81
2023/10/08 04:03:57;;;;;;;3.00;2.57;;;;;;;13.40;90.67;101132.59;5018883;28;20226;-81
2023/10/08 04:11:35;;;;;;;3.67;3.10;;;;;;;13.40;90.51;101118.75;5041047;28;20212;-79
2023/10/08 04:14:02;;;;;;;5.83;3.13;;;;;;;13.39;90.68;101110.03;5016474;28;20225;-83
2023/10/08 04:16:31;;;;;;;2.93;2.67;;;;;;;13.39;90.97;101110.03;5021711;28;20901;-81
2023/10/08 04:18:57;;;;;;;3.30;2.70;;;;;;;13.38;91.19;101103.16;5018346;28;20505;-81
2023/10/08 04:21:27;;;;;;;4.00;3.00;;;;;;;13.38;91.66;101105.75;5008880;28;20906;-81
2023/10/08 04:23:53;;;;;;;3.70;2.97;;;;;;;13.37;91.65;101098.81;5020668;28;20201;-82
2023/10/08 04:26:23;;;;;;;4.17;2.70;;;;;;;13.37;91.62;101105.75;5014022;28;20187;-81
2023/10/08 04:29:02;;;;;;;4.57;3.00;;;;;;;13.37;92.01;101101.41;5020263;28;20564;-82
2023/10/08 04:31:43;;;;;;;5.23;3.00;;;;;;;13.37;92.05;101096.22;5017001;28;20202;-81
2023/10/08 04:34:10;;;;;;;4.93;3.00;;;;;;;13.37;92.14;101095.34;5017960;28;20198;-80
2023/10/08 04:36:38;;;;;;;4.27;3.03;;;;;;;13.37;92.17;101100.53;5023696;28;20194;-81
2023/10/08 04:39:13;;;;;;;4.37;3.17;;;;;;;13.36;92.63;101091.91;5022113;28;20626;-81
2023/10/08 04:41:45;;;;;;;2.90;2.40;;;;;;;13.36;92.58;101101.41;5010686;28;20212;-83
2023/10/08 04:44:16;;;;;;;4.10;2.80;;;;;;;13.35;92.91;101103.16;5016694;28;20190;-82
2023/10/08 04:49:23;;;;;;;4.93;2.90;;;;;;;13.34;93.65;101114.44;5013551;28;20442;-81
2023/10/08 04:51:48;;;;;;;4.00;3.47;;;;;;;13.33;93.86;101104.91;5019111;28;20772;-83
2023/10/08 04:54:17;;;;;;;3.57;3.10;;;;;;;13.31;94.44;101103.22;5018415;28;20207;-81
2023/10/08 04:56:43;;;;;;;3.20;2.60;;;;;;;13.30;94.58;101115.31;5017674;28;20197;-82
2023/10/08 04:59:11;;;;;;;3.87;2.37;;;;;;;13.26;94.68;101114.50;5016362;28;20341;-79
2023/10/08 05:02:20;;;;;;;3.90;2.83;;;;;;;13.25;95.07;101114.47;5017282;28;20216;-83
2023/10/08 05:04:45;;;;;;;4.23;2.90;;;;;;;13.23;95.42;101119.69;5013819;28;20211;-82
2023/10/08 05:16:01;;;;;;;4.13;2.40;;;;;;;13.15;96.80;101121.50;5020728;28;20200;-82
2023/10/08 05:17:58;;;;;;;3.70;2.70;;;;;;;13.13;97.07;101125.84;5019064;28;20296;-82
2023/10/08 05:25:57;;;;;;;4.07;2.87;;;;;;;13.06;97.97;101127.63;5012420;28;20735;-81
2023/10/08 05:28:26;;;;;;;4.10;2.97;;;;;;;13.04;98.13;101136.28;5019554;28;20198;-81
2023/10/08 05:31:11;;;;;;;3.73;2.73;;;;;;;13.03;98.77;101144.94;5016682;28;20236;-82
2023/10/08 05:34:14;;;;;;;4.93;2.47;;;;;;;13.00;99.15;101135.44;5018298;28;20610;-80
2023/10/08 05:36:49;;;;;;;3.30;2.80;;;;;;;12.99;99.55;101146.69;5009423;28;20192;-81
2023/10/08 05:41:55;;;;;;;3.87;3.10;;;;;;;12.96;99.93;101146.69;5018522;28;20663;-84
2023/10/08 05:47:06;;;;;;;3.73;2.97;;;;;;;12.96;100.00;101141.50;5020853;28;20197;-81
2023/10/08 05:59:39;;;;;;;3.60;2.93;;;;;;;13.10;99.61;101154.44;5023450;28;20192;-79
2023/10/08 06:02:39;;;;;;;3.97;3.20;;;;;;;13.14;99.28;101152.69;5023873;28;20237;-84
2023/10/08 06:05:20;;;;;;;3.60;2.63;;;;;;;13.14;98.99;101153.56;5021125;28;20605;-81
2023/10/08 06:07:56;;;;;;;4.13;2.73;;;;;;;13.17;98.88;101150.91;5019331;28;20270;-82
2023/10/08 06:13:13;;;;;;;4.37;2.90;;;;;;;13.25;98.84;101140.47;5049575;28;20215;-78
2023/10/08 06:18:11;;;;;;;3.33;3.03;;;;;;;13.30;98.12;101137.88;5022021;28;20198;-82
2023/10/08 06:20:39;;;;;;;4.87;3.43;;;;;;;13.32;97.42;101136.09;5023932;28;20204;-81
2023/10/08 06:23:07;;;;;;;4.90;3.83;;;;;;;13.36;95.31;101140.41;5016889;28;20716;-79
2023/10/08 06:25:33;;;;;;;6.27;3.97;;;;;;;13.39;93.29;101135.19;5021872;28;20293;-79
2023/10/08 06:27:58;;;;;;;4.83;3.83;;;;;;;13.40;93.05;101132.59;5017419;28;20188;-79
2023/10/08 06:30:28;;;;;;;4.43;3.30;;;;;;;13.43;92.83;101136.06;5010297;28;20225;-81
2023/10/08 06:32:56;;;;;;;3.77;3.07;;;;;;;13.46;92.58;101138.66;5014501;28;20213;-83
2023/10/08 06:35:25;;;;;;;5.63;3.80;;;;;;;13.49;92.40;101143.84;5016817;28;20658;-81
2023/10/08 06:37:54;;;;;;;4.17;3.23;;;;;;;13.51;92.30;101142.09;5019222;28;20242;-80
2023/10/08 06:43:24;;;;;;;6.90;4.20;;;;;;;13.54;91.25;101149.84;5020612;28;20560;-82
2023/10/08 06:45:52;;;;;;;5.00;3.60;;;;;;;13.51;91.71;101148.13;5017210;28;20230;-81
2023/10/08 06:48:21;;;;;;;6.63;3.60;;;;;;;13.53;92.05;101137.75;5013517;28;20653;-80
2023/10/08 06:50:48;;;;;;;6.87;3.47;;;;;;;13.56;92.54;101140.28;5017890;28;20305;-79
2023/10/08 06:53:14;;;;;;;4.80;3.20;;;;;;;13.61;92.82;101151.53;5022681;28;20260;-81
2023/10/08 06:55:41;;;;;;;6.07;3.43;;;;;;;13.66;93.07;101159.28;5022431;28;20213;-80
2023/10/08 06:58:11;;;;;;;4.37;3.50;;;;;;;13.68;93.07;101167.97;5021039;28;20194;-79
2023/10/08 07:00:46;;;;;;;4.90;3.37;;;;;;;13.72;93.24;101167.06;5024859;28;20210;-79
2023/10/08 07:03:17;;;;;;;4.50;3.50;;;;;;;13.77;93.62;101185.22;5025184;28;20197;-80
2023/10/08 07:05:59;;;;;;;4.03;3.50;;;;;;;13.83;93.49;101188.66;5023820;28;20194;-79
2023/10/08 07:08:26;;;;;;;4.17;2.93;;;;;;;13.89;93.33;101179.06;5021400;28;20195;-79
2023/10/08 07:10:53;;;;;;;4.80;3.60;;;;;;;13.93;93.05;101179.03;5024962;28;20203;-78
2023/10/08 07:13:24;;;;;;;4.40;3.50;;;;;;;13.97;92.93;101183.34;5017382;28;20208;-81
2023/10/08 07:15:50;;;;;;;4.03;3.60;;;;;;;13.99;92.65;101185.91;5040599;28;20180;-80
2023/10/08 07:18:22;;;;;;;4.73;3.53;;;;;;;14.01;91.79;101189.38;5017836;28;20193;-79
2023/10/08 07:20:53;;;;;;;6.07;4.13;;;;;;;14.09;92.23;101189.31;5018740;28;20236;-80
2023/10/08 07:23:25;;;;;;;4.27;3.50;;;;;;;14.21;91.81;101204.81;5017015;28;20271;-81
2023/10/08 07:26:11;;;;;;;4.63;3.60;;;;;;;14.34;91.53;101208.16;5046335;28;20217;-80
2023/10/08 07:28:46;;;;;;;5.40;3.80;;;;;;;14.38;90.52;101214.19;5018258;28;20195;-80
2023/10/08 07:31:22;;;;;;;5.63;3.90;;;;;;;14.47;90.65;101230.59;5015399;28;20206;-80
2023/10/08 07:33:55;;;;;;;5.00;3.60;;;;;;;14.59;90.97;101233.94;5018240;28;20191;-78
2023/10/08 07:36:21;;;;;;;4.57;3.27;;;;;;;14.70;90.91;101239.09;5012781;28;20786;-80
2023/10/08 07:38:47;;;;;;;5.10;3.30;;;;;;;14.80;90.49;101229.44;5021443;28;20261;-79
2023/10/08 07:41:14;;;;;;;5.03;3.70;;;;;;;14.82;89.69;101228.53;5016591;28;20572;-79
2023/10/08 07:43:42;;;;;;;4.77;3.60;;;;;;;14.89;89.31;101232.78;5020956;28;20273;-80
2023/10/08 07:46:09;;;;;;;6.60;4.00;;;;;;;14.96;89.45;101230.97;5022301;28;20201;-80
2023/10/08 07:48:35;;;;;;;6.47;4.03;;;;;;;15.00;88.96;101223.97;5016964;28;20192;-77
2023/10/08 07:51:01;;;;;;;3.87;3.27;;;;;;;15.05;89.40;101225.63;5040660;28;20307;-77
2023/10/08 07:53:37;;;;;;;4.53;3.50;;;;;;;15.13;88.93;101220.31;5040621;28;21096;-80
2023/10/08 07:56:08;;;;;;;5.43;4.00;;;;;;;15.21;89.06;101228.91;5012878;28;20192;-78
2023/10/08 07:58:37;;;;;;;4.93;3.80;;;;;;;15.24;89.27;101221.03;5043001;28;20198;-80
2023/10/08 08:01:06;;;;;;;4.90;3.53;;;;;;;15.27;89.43;101219.28;5014544;28;20322;-80
2023/10/08 08:03:36;;;;;;;4.87;4.27;;;;;;;15.35;89.20;101222.66;5012517;28;20242;-78
2023/10/08 08:06:08;;;;;;;4.60;3.93;;;;;;;15.51;89.60;101218.91;5018962;28;20221;-80
2023/10/08 08:08:35;;;;;;;4.80;3.73;;;;;;;15.64;89.54;101218.75;5013813;28;20191;-80
2023/10/08 08:11:11;;;;;;;7.10;4.17;;;;;;;15.72;88.97;101219.50;5021599;28;20333;-79
2023/10/08 08:13:39;;;;;;;6.00;3.67;;;;;;;15.93;88.17;101227.91;5025197;28;20306;-76
2023/10/08 08:16:28;;;;;;;4.53;4.00;;;;;;;16.08;87.62;101229.38;5048336;28;20266;-77
2023/10/08 08:18:52;;;;;;;4.23;3.60;;;;;;;16.29;87.46;101230.78;5025192;28;20207;-80
2023/10/08 08:21:19;;;;;;;4.97;3.43;;;;;;;16.31;86.35;101234.22;5023618;28;21114;-78
2023/10/08 08:23:48;;;;;;;4.63;3.47;;;;;;;16.48;84.84;101238.28;5020174;28;20184;-79
2023/10/08 08:26:26;;;;;;;5.00;3.37;;;;;;;16.63;84.82;101255.44;5021196;28;20190;-79
2023/10/08 08:29:01;;;;;;;5.47;3.57;;;;;;;16.73;84.13;101257.81;5018626;28;20652;-79
2023/10/08 08:31:31;;;;;;;7.27;4.00;;;;;;;16.90;83.40;101260.13;5047039;28;20206;-80
2023/10/08 08:33:59;;;;;;;4.70;3.47;;;;;;;16.99;83.07;101266.09;5017902;28;20279;-78
2023/10/08 08:36:25;;;;;;;4.37;3.83;;;;;;;17.08;82.98;101259.81;5013231;28;20237;-78
2023/10/08 08:38:51;;;;;;;3.77;3.37;;;;;;;17.17;82.94;101264.84;5016199;28;22027;-79
2023/10/08 08:41:17;;;;;;;5.77;4.10;;;;;;;17.12;81.82;101261.47;5027107;28;20205;-82
2023/10/08 08:43:47;;;;;;;4.87;3.83;;;;;;;17.20;81.43;101270.00;5019733;28;20180;-78
2023/10/08 08:46:13;;;;;;;4.73;3.90;;;;;;;17.38;81.43;101268.78;5020763;28;20910;-78
2023/10/08 08:48:47;;;;;;;5.07;3.73;;;;;;;17.49;80.78;101263.28;5020406;28;20211;-81
2023/10/08 08:51:13;;;;;;;4.37;3.73;;;;;;;17.55;80.47;101265.78;5015156;28;20194;-79
2023/10/08 08:53:39;;;;;;;5.80;4.40;;;;;;;17.37;80.68;101260.06;5020059;28;20211;-78
2023/10/08 08:56:09;;;;;;;5.53;3.50;;;;;;;17.64;80.34;101259.47;5019922;28;20243;-79
2023/10/08 08:58:35;;;;;;;4.93;4.10;;;;;;;17.78;80.29;101256.53;5012636;28;20187;-80
2023/10/08 09:01:03;;;;;;;5.83;3.50;;;;;;;17.90;79.86;101256.25;5013487;28;20381;-81
2023/10/08 09:03:32;;;;;;;4.17;3.77;;;;;;;18.02;78.98;101251.66;5008407;28;20215;-79
2023/10/08 09:05:58;;;;;;;6.00;4.20;;;;;;;18.07;78.49;101253.25;5011113;28;20192;-77
2023/10/08 09:08:36;;;;;;;4.93;3.73;;;;;;;18.14;78.77;101256.56;5006915;28;20685;-80
2023/10/08 09:11:04;;;;;;;5.03;3.43;;;;;;;18.20;77.62;101264.28;5010116;28;20206;-80
2023/10/08 09:13:31;;;;;;;5.00;3.80;;;;;;;18.41;77.32;101259.38;5023497;28;20209;-80
2023/10/08 09:16:03;;;;;;;4.97;3.70;;;;;;;18.39;76.21;101256.81;5017117;28;20209;-82
2023/10/08 09:18:29;;;;;;;6.60;4.10;;;;;;;18.43;76.16;101254.97;5013155;28;20876;-79
2023/10/08 09:20:55;;;;;;;5.40;3.93;;;;;;;18.35;75.30;101243.84;5040346;28;20207;-81
2023/10/08 09:23:24;;;;;;;5.17;3.43;;;;;;;18.61;75.25;101244.88;5011820;28;20179;-79
2023/10/08 09:25:49;;;;;;;4.73;3.63;;;;;;;18.76;74.32;101251.47;5020688;28;20248;-80
2023/10/08 09:28:16;;;;;;;6.60;3.67;;;;;;;18.87;73.76;101250.25;5019997;28;20188;-81
2023/10/08 09:30:44;;;;;;;6.37;4.27;;;;;;;18.89;73.57;101252.84;5015680;28;20222;-80
2023/10/08 09:33:12;;;;;;;6.53;3.93;;;;;;;18.78;72.72;101254.91;5017755;28;20217;-80
2023/10/08 09:35:38;;;;;;;5.73;4.20;;;;;;;19.00;72.57;101249.94;5014556;28;20183;-79
2023/10/08 09:38:05;;;;;;;5.87;3.70;;;;;;;18.98;72.89;101250.00;5013713;28;20219;-79
2023/10/08 09:40:30;;;;;;;5.57;3.57;;;;;;;18.91;72.83;101245.78;5016842;28;20269;-80
2023/10/08 09:42:56;;;;;;;7.70;5.00;;;;;;;19.09;73.70;101249.69;5012357;28;20298;-81
2023/10/08 09:45:22;;;;;;;7.40;4.20;;;;;;;19.18;73.80;101249.41;5021691;28;20268;-80
2023/10/08 09:47:54;;;;;;;5.77;3.53;;;;;;;19.21;72.93;101230.06;5017282;28;20237;-83
2023/10/08 09:50:28;;;;;;;7.20;3.87;;;;;;;19.23;72.36;101235.28;5016102;28;20191;-80
2023/10/08 09:53:16;;;;;;;7.83;4.10;;;;;;;19.36;72.27;101222.69;5019576;28;20211;-81
2023/10/08 09:55:45;;;;;;;4.90;3.93;;;;;;;19.48;72.27;101227.53;5014408;28;20191;-81
2023/10/08 09:58:14;;;;;;;5.67;4.20;;;;;;;19.56;72.36;101224.66;5024858;28;20187;-81
2023/10/08 10:00:41;;;;;;;4.90;3.50;;;;;;;19.61;71.97;101223.63;5032669;28;20215;-81
2023/10/08 10:03:08;;;;;;;8.17;3.77;;;;;;;19.75;72.18;101224.94;5021797;28;20187;-80
2023/10/08 10:05:37;;;;;;;5.20;3.57;;;;;;;19.64;72.35;101222.66;5017453;28;20198;-80
2023/10/08 10:08:09;;;;;;;8.40;4.10;;;;;;;19.83;72.83;101225.53;5023305;28;20249;-80
2023/10/08 10:10:40;;;;;;;5.40;3.33;;;;;;;20.08;72.60;101222.13;5015671;28;20274;-81
2023/10/08 10:13:09;;;;;;;5.57;3.50;;;;;;;20.22;72.66;101235.66;5021157;28;20682;-81
2023/10/08 10:15:39;;;;;;;5.27;3.70;;;;;;;20.31;72.12;101236.25;5038231;28;20168;-81
2023/10/08 10:18:27;;;;;;;5.93;3.43;;;;;;;20.41;71.05;101233.25;5051020;28;20202;-80
2023/10/08 10:21:00;;;;;;;6.53;3.83;;;;;;;20.34;70.62;101233.50;5022211;28;20203;-78
2023/10/08 10:23:39;;;;;;;6.73;3.67;;;;;;;20.32;70.59;101230.94;5023207;28;20218;-79
2023/10/08 10:26:26;;;;;;;4.60;3.20;;;;;;;20.51;70.69;101236.41;5019829;28;20189;-80
2023/10/08 10:29:10;;;;;;;4.83;3.33;;;;;;;20.79;70.56;101242.50;5020948;28;20180;-81
2023/10/08 10:31:36;;;;;;;6.27;3.73;;;;;;;20.84;69.95;101237.91;5020380;28;21042;-78
2023/10/08 10:34:08;;;;;;;6.97;3.70;;;;;;;21.00;69.74;101230.31;5028445;28;20251;-79
2023/10/08 10:36:40;;;;;;;6.00;3.67;;;;;;;20.97;70.31;101233.88;5010421;28;20191;-79
2023/10/08 10:39:16;;;;;;;5.03;3.17;;;;;;;21.17;70.58;101240.19;5013913;28;20193;-82
2023/10/08 10:41:46;;;;;;;4.43;3.20;;;;;;;21.29;70.17;101234.44;5018234;28;20202;-80
2023/10/08 10:44:13;;;;;;;6.30;3.70;;;;;;;21.06;69.52;101234.47;5016631;28;20180;-80
2023/10/08 10:46:41;;;;;;;5.33;3.53;;;;;;;21.24;69.41;101236.41;5024680;28;20200;-81
2023/10/08 10:51:42;;;;;;;5.50;3.20;;;;;;;21.27;70.19;101228.38;5020689;28;21111;-76
2023/10/08 10:54:07;;;;;;;5.77;3.77;;;;;;;21.30;70.49;101228.25;5018995;28;20203;-82
2023/10/08 10:56:40;;;;;;;4.80;3.43;;;;;;;21.43;70.57;101227.75;5021919;28;20211;-80
2023/10/08 10:59:26;;;;;;;6.43;3.17;;;;;;;21.33;70.53;101216.75;5019052;28;20239;-84
2023/10/08 11:01:52;;;;;;;6.77;3.43;;;;;;;21.41;70.96;101216.44;5011426;28;20206;-80
2023/10/08 11:04:19;;;;;;;5.13;3.53;;;;;;;21.39;71.05;101218.28;5018688;28;20203;-80
2023/10/08 11:06:50;;;;;;;7.10;3.57;;;;;;;21.38;71.42;101208.69;5017514;28;20189;-80
2023/10/08 11:09:17;;;;;;;5.37;3.47;;;;;;;21.53;71.33;101207.19;5016889;28;20222;-81
2023/10/08 11:11:51;;;;;;;6.23;4.00;;;;;;;21.56;71.41;101202.66;5015907;28;20233;-80
2023/10/08 11:14:18;;;;;;;8.53;3.77;;;;;;;21.40;72.08;101204.22;5044210;28;20346;-81
2023/10/08 11:16:45;;;;;;;5.83;3.30;;;;;;;21.53;72.17;101199.28;5022723;28;20640;-80
2023/10/08 11:19:15;;;;;;;5.97;3.37;;;;;;;21.78;71.59;101196.56;5013360;28;20195;-80
2023/10/08 11:21:53;;;;;;;6.17;3.10;;;;;;;21.90;72.11;101189.91;5019656;28;20563;-80
2023/10/08 11:24:37;;;;;;;5.47;3.20;;;;;;;21.88;73.51;101183.84;5019104;28;20257;-81
2023/10/08 11:27:15;;;;;;;4.23;3.30;;;;;;;22.04;72.83;101178.78;5017989;28;20221;-79
2023/10/08 11:29:48;;;;;;;8.10;4.30;;;;;;;22.05;73.02;101176.09;5014221;28;20640;-80
2023/10/08 11:32:17;;;;;;;3.53;2.90;;;;;;;22.17;72.39;101179.09;5015058;28;20215;-82
2023/10/08 11:34:49;;;;;;;5.50;3.37;;;;;;;22.03;72.14;101183.19;5022306;28;20192;-78
2023/10/08 11:37:25;;;;;;;7.47;3.63;;;;;;;21.67;71.72;101173.28;5021455;28;20261;-78
2023/10/08 11:39:52;;;;;;;6.57;3.80;;;;;;;21.74;72.22;101181.78;5025848;28;20190;-79
2023/10/08 11:45:17;;;;;;;4.93;3.50;;;;;;;21.88;71.78;101168.03;5013365;28;20283;-79
2023/10/08 11:47:45;;;;;;;4.93;3.10;;;;;;;21.71;71.65;101166.09;5016413;28;20244;-81
2023/10/08 11:50:11;;;;;;;6.27;4.20;;;;;;;21.77;71.51;101169.38;5020290;28;20199;-79
2023/10/08 11:52:44;;;;;;;4.50;3.20;;;;;;;21.91;71.19;101163.50;5018750;28;20238;-81
2023/10/08 11:55:14;;;;;;;5.67;3.93;;;;;;;21.96;71.43;101171.19;5044436;28;20188;-81
2023/10/08 11:57:45;;;;;;;5.37;3.80;;;;;;;22.04;71.48;101177.00;5016705;28;20198;-79
2023/10/08 12:00:25;;;;;;;4.77;3.27;;;;;;;22.05;71.41;101167.31;5011298;28;20192;-80
2023/10/08 12:02:54;;;;;;;6.00;3.33;;;;;;;22.09;71.79;101163.63;5015203;28;20184;-81
2023/10/08 12:05:26;;;;;;;6.20;3.30;;;;;;;22.02;71.92;101164.78;5018834;28;20285;-78
2023/10/08 12:07:52;;;;;;;4.40;3.43;;;;;;;21.85;72.25;101158.50;5009202;28;20202;-79
2023/10/08 12:10:24;;;;;;;5.00;3.53;;;;;;;22.06;72.20;101161.13;5013862;28;20728;-81
2023/10/08 12:12:54;;;;;;;9.10;4.07;;;;;;;21.99;70.81;101155.25;5012602;28;21002;-82
2023/10/08 12:15:26;;;;;;;7.57;3.57;;;;;;;22.04;70.96;101158.56;5017706;28;20245;-81
2023/10/08 12:18:39;;;;;;;5.20;4.20;;;;;;;22.16;70.75;101149.22;5009428;28;20196;-80
2023/10/08 12:20:45;;;;;;;8.10;4.07;;;;;;;22.01;70.35;101153.41;5034114;28;20211;-79
2023/10/08 12:23:11;;;;;;;6.23;3.67;;;;;;;22.14;70.35;101153.75;5033805;28;20211;-79
2023/10/08 12:25:37;;;;;;;3.77;3.30;;;;;;;22.19;70.85;101141.19;5026526;28;20741;-81
2023/10/08 12:28:06;;;;;;;4.83;3.50;;;;;;;22.06;70.36;101154.06;5011359;28;20694;-80
2023/10/08 12:30:34;;;;;;;5.57;3.87;;;;;;;22.18;70.51;101152.66;5008569;28;20722;-81
2023/10/08 12:33:00;;;;;;;5.60;3.60;;;;;;;22.21;70.56;101143.78;5021994;28;20250;-81
2023/10/08 12:35:26;;;;;;;7.80;3.93;;;;;;;22.28;70.67;101141.72;5014444;28;20211;-81